Eldridge, Alabama
Current Conditions -  °F | °C
As of 9:55 AM on Friday 24 Oct 2014 (Local Time) from KJFX Reporting Station
Clear Clear  
Wind Chill: 63°   Ceiling: Unl
Heat Index: 63°   Visibility: 10mi
Dew Point: 50°   Wind: 5mph
Humidity: 63%   Direction: 30°NNE
Pressure: 30.14"   Gusts: NA
Location:  33.92°N, 87.62°W
Report Text: KJFX 241455Z AUTO 03004KT 10SM CLR 17/10 A3014 RMK A02 P-128
Loading
Personal Weather Stations






























Interactive Weather Map
Tropical Storm Tracking
New forecast layout! Learn more

10-Day Weather Forecast

Advertisements
Track Severe Weather on mobile